Time;durP1;ratioP1;P1;durP2;ratioP2;P2;SDS_P1;SDS_P2;PMS_P1;PMS_P2;Temp;Humidity;BMP_temperature;BMP_pressure;BME280_temperature;BME280_humidity;BME280_pressure;Samples;Min_cycle;Max_cycle;Signal;HPM_P1;HPM_P2
2022/09/09 00:01:09;;;;;;;1.88;0.30;;;20.00;99.90;;;;;;4763275;30;20063;-92
2022/09/09 00:04:07;;;;;;;1.00;0.35;;;20.00;99.90;;;;;;4766220;30;20079;-93
2022/09/09 00:06:57;;;;;;;0.80;0.40;;;20.10;99.90;;;;;;4738505;30;20087;-92
2022/09/09 00:09:28;;;;;;;3.92;0.57;;;20.00;99.90;;;;;;4730042;30;20063;-93
2022/09/09 00:12:06;;;;;;;1.35;0.52;;;20.00;99.90;;;;;;4769336;30;20048;-92
2022/09/09 00:14:48;;;;;;;2.08;0.60;;;20.00;99.90;;;;;;4763961;30;20175;-92
2022/09/09 00:17:25;;;;;;;8.37;1.10;;;19.90;99.90;;;;;;4760998;30;20059;-93
2022/09/09 00:20:18;;;;;;;1.92;0.40;;;19.90;99.90;;;;;;4774536;29;20141;-92
2022/09/09 00:22:55;;;;;;;1.00;0.40;;;19.90;99.90;;;;;;4773255;29;20521;-92
2022/09/09 00:25:34;;;;;;;2.20;0.73;;;19.90;99.90;;;;;;4770492;29;20109;-91
2022/09/09 00:28:01;;;;;;;2.90;0.50;;;19.90;99.90;;;;;;4787588;29;20137;-92
2022/09/09 00:30:33;;;;;;;1.75;0.60;;;19.80;99.90;;;;;;4773033;30;20517;-91
2022/09/09 00:33:11;;;;;;;1.63;0.40;;;19.70;99.90;;;;;;4784667;29;20197;-92
2022/09/09 00:35:47;;;;;;;1.23;0.55;;;19.80;99.90;;;;;;4780060;29;20079;-92
2022/09/09 00:38:35;;;;;;;1.20;0.50;;;19.80;99.90;;;;;;4772958;29;20466;-92
2022/09/09 00:41:10;;;;;;;1.48;0.60;;;19.80;99.90;;;;;;4784453;29;20051;-92
2022/09/09 00:43:40;;;;;;;2.75;0.88;;;19.80;99.90;;;;;;4771346;29;20497;-92
2022/09/09 00:46:18;;;;;;;6.05;0.70;;;19.70;99.90;;;;;;4779003;29;20050;-93
2022/09/09 00:48:54;;;;;;;2.10;0.70;;;19.70;99.90;;;;;;4767141;30;20055;-92
2022/09/09 00:51:36;;;;;;;0.80;0.50;;;19.60;99.90;;;;;;4770371;30;20048;-95
2022/09/09 00:54:42;;;;;;;1.67;0.50;;;19.60;99.90;;;;;;4760267;29;20413;-91
2022/09/09 00:57:23;;;;;;;1.60;0.50;;;19.60;99.90;;;;;;4715144;30;20420;-91
2022/09/09 00:59:58;;;;;;;0.85;0.30;;;19.60;99.90;;;;;;4698498;30;20061;-90
2022/09/09 01:02:57;;;;;;;1.10;0.50;;;19.60;99.90;;;;;;4750847;29;20047;-91
2022/09/09 01:05:37;;;;;;;1.42;0.50;;;19.60;99.90;;;;;;4748295;29;20112;-92
2022/09/09 01:08:14;;;;;;;0.80;0.40;;;19.50;99.90;;;;;;4771515;29;20051;-92
2022/09/09 01:10:49;;;;;;;2.45;0.70;;;19.50;99.90;;;;;;4772907;29;20884;-91
2022/09/09 01:13:30;;;;;;;1.77;0.40;;;19.50;99.90;;;;;;4786686;29;20150;-91
2022/09/09 01:16:07;;;;;;;1.48;0.30;;;19.50;99.90;;;;;;4776842;29;20043;-91
2022/09/09 01:18:45;;;;;;;1.00;0.40;;;19.50;99.90;;;;;;4788002;29;20134;-91
2022/09/09 01:21:39;;;;;;;1.60;0.63;;;19.40;99.90;;;;;;4788715;29;20059;-91
2022/09/09 01:24:19;;;;;;;1.75;0.57;;;19.40;99.90;;;;;;4783927;29;20047;-91
2022/09/09 01:27:11;;;;;;;1.58;0.40;;;19.40;99.90;;;;;;4789664;29;20043;-91
2022/09/09 01:29:39;;;;;;;1.38;0.50;;;19.40;99.90;;;;;;4787928;29;20086;-92
2022/09/09 01:32:40;;;;;;;2.22;0.63;;;19.40;99.90;;;;;;4771405;29;20062;-91
2022/09/09 01:35:31;;;;;;;1.80;0.40;;;19.40;99.90;;;;;;4786998;29;20091;-90
2022/09/09 01:38:00;;;;;;;1.58;0.60;;;19.40;99.90;;;;;;4754679;29;20054;-90
2022/09/09 01:40:27;;;;;;;0.90;0.50;;;19.30;99.90;;;;;;4769532;29;20043;-90
2022/09/09 01:42:57;;;;;;;1.23;0.38;;;19.30;99.90;;;;;;4771086;29;20055;-91
2022/09/09 01:45:25;;;;;;;2.65;0.68;;;19.30;99.90;;;;;;4769363;29;20131;-90
2022/09/09 01:47:56;;;;;;;1.55;0.43;;;19.30;99.90;;;;;;4783040;29;20046;-91
2022/09/09 01:50:44;;;;;;;2.45;0.50;;;19.30;99.90;;;;;;4782908;29;20065;-92
2022/09/09 01:53:14;;;;;;;0.80;0.50;;;19.30;99.90;;;;;;4791800;29;20068;-91
2022/09/09 01:55:48;;;;;;;2.10;0.70;;;19.30;99.90;;;;;;4793295;29;20054;-91
2022/09/09 01:58:24;;;;;;;2.85;0.65;;;19.30;99.90;;;;;;4764507;29;20119;-91
2022/09/09 02:01:06;;;;;;;1.52;0.70;;;19.30;99.90;;;;;;4780464;29;20058;-90
2022/09/09 02:03:36;;;;;;;0.98;0.60;;;19.30;99.90;;;;;;4773474;30;20085;-91
2022/09/09 02:06:36;;;;;;;1.63;0.63;;;19.20;99.90;;;;;;4788626;29;20055;-91
2022/09/09 02:09:18;;;;;;;1.73;0.73;;;19.20;99.90;;;;;;4773178;29;20066;-90
2022/09/09 02:11:49;;;;;;;1.45;0.60;;;19.20;99.90;;;;;;4782916;29;20047;-91
2022/09/09 02:14:42;;;;;;;0.90;0.47;;;19.20;99.90;;;;;;4765151;29;20074;-91
2022/09/09 02:17:13;;;;;;;1.70;0.68;;;19.20;99.90;;;;;;4767198;30;20043;-91
2022/09/09 02:20:08;;;;;;;2.35;0.70;;;19.10;99.90;;;;;;4777023;29;20074;-91
2022/09/09 02:22:50;;;;;;;1.88;0.80;;;19.10;99.90;;;;;;4769105;29;20105;-91
2022/09/09 02:25:23;;;;;;;1.75;0.77;;;19.10;99.90;;;;;;4781568;30;20047;-91
2022/09/09 02:27:53;;;;;;;1.25;0.65;;;19.10;99.90;;;;;;4775921;29;20047;-92
2022/09/09 02:30:21;;;;;;;1.65;0.73;;;18.80;99.90;;;;;;4770369;29;20047;-92
2022/09/09 02:32:57;;;;;;;1.30;0.70;;;19.10;99.90;;;;;;4789602;29;20053;-91
2022/09/09 02:35:38;;;;;;;2.40;1.08;;;19.10;99.90;;;;;;4789355;29;20274;-92
2022/09/09 02:38:12;;;;;;;1.77;0.90;;;19.10;99.90;;;;;;4785637;30;20051;-92
2022/09/09 02:40:43;;;;;;;3.38;0.77;;;19.00;99.90;;;;;;4773019;29;20150;-92
2022/09/09 02:43:10;;;;;;;1.27;0.70;;;19.00;99.90;;;;;;4790261;29;20103;-92
2022/09/09 02:46:12;;;;;;;2.53;1.10;;;19.00;99.90;;;;;;4770658;29;20047;-92
2022/09/09 02:48:49;;;;;;;2.80;0.80;;;19.10;99.90;;;;;;4765498;29;20055;-92
2022/09/09 02:51:34;;;;;;;1.77;0.90;;;19.00;99.90;;;;;;4785544;29;20047;-92
2022/09/09 02:54:31;;;;;;;4.05;1.02;;;19.00;99.90;;;;;;4786091;29;20058;-92
2022/09/09 02:57:12;;;;;;;2.33;1.00;;;19.00;99.90;;;;;;4766154;29;20061;-92
2022/09/09 02:59:42;;;;;;;4.40;1.25;;;19.00;99.90;;;;;;4782161;29;20051;-92
2022/09/09 03:02:11;;;;;;;3.17;0.88;;;19.00;99.90;;;;;;4773266;29;20079;-92
2022/09/09 03:04:41;;;;;;;1.80;1.30;;;19.00;99.90;;;;;;4768281;30;20513;-92
2022/09/09 03:07:09;;;;;;;1.75;0.85;;;19.00;99.90;;;;;;4764210;29;20079;-93
2022/09/09 03:09:37;;;;;;;1.58;1.02;;;19.00;99.90;;;;;;4774677;29;20100;-92
2022/09/09 03:12:04;;;;;;;3.03;0.82;;;18.90;99.90;;;;;;4771734;29;20146;-93
2022/09/09 03:14:33;;;;;;;3.15;1.35;;;19.00;99.90;;;;;;4772805;29;20066;-92
2022/09/09 03:17:02;;;;;;;2.47;0.95;;;19.00;99.90;;;;;;4767934;29;20154;-94
2022/09/09 03:19:36;;;;;;;1.75;1.00;;;18.90;99.90;;;;;;4773747;29;20077;-90
2022/09/09 03:22:06;;;;;;;3.08;1.50;;;18.90;99.90;;;;;;4770823;29;20051;-89
2022/09/09 03:24:36;;;;;;;2.85;1.08;;;18.90;99.90;;;;;;4778100;29;20086;-92
2022/09/09 03:27:04;;;;;;;3.00;1.60;;;18.90;99.90;;;;;;4769685;29;20103;-93
2022/09/09 03:29:32;;;;;;;2.55;1.60;;;18.80;99.90;;;;;;4771631;29;20054;-93
2022/09/09 03:32:02;;;;;;;2.10;1.30;;;18.80;99.90;;;;;;4773877;29;20078;-93
2022/09/09 03:34:29;;;;;;;2.38;1.15;;;18.80;99.90;;;;;;4771949;29;20051;-93
2022/09/09 03:36:58;;;;;;;2.45;1.10;;;18.80;99.90;;;;;;4767535;29;20047;-92
2022/09/09 03:39:27;;;;;;;2.78;1.17;;;18.80;99.90;;;;;;4775249;29;20413;-92
2022/09/09 03:41:54;;;;;;;2.00;1.33;;;18.80;99.90;;;;;;4772807;30;20054;-92
2022/09/09 03:44:21;;;;;;;2.97;1.20;;;18.80;99.90;;;;;;4767565;29;20050;-92
2022/09/09 03:46:48;;;;;;;2.65;1.58;;;18.70;99.90;;;;;;4771001;30;20604;-92
2022/09/09 03:49:16;;;;;;;3.13;1.48;;;18.70;99.90;;;;;;4772548;29;20057;-92
2022/09/09 03:51:44;;;;;;;1.90;1.30;;;18.70;99.90;;;;;;4773535;29;20046;-92
2022/09/09 03:54:13;;;;;;;2.20;1.40;;;18.70;99.90;;;;;;4772734;29;20516;-92
2022/09/09 03:56:41;;;;;;;2.17;1.13;;;18.70;99.90;;;;;;4775736;30;20142;-92
2022/09/09 03:59:11;;;;;;;2.63;1.35;;;18.60;99.90;;;;;;4773681;29;20047;-92
2022/09/09 04:01:39;;;;;;;3.63;1.35;;;18.70;99.90;;;;;;4771850;29;20135;-92
2022/09/09 04:04:08;;;;;;;2.20;1.48;;;18.70;99.90;;;;;;4773012;29;20046;-93
2022/09/09 04:06:36;;;;;;;3.97;1.27;;;18.70;99.90;;;;;;4764317;29;20449;-92
2022/09/09 04:09:03;;;;;;;2.00;1.10;;;18.70;99.90;;;;;;4771124;29;21280;-92
2022/09/09 04:11:31;;;;;;;1.95;1.02;;;18.60;99.90;;;;;;4771801;29;20137;-92
2022/09/09 04:13:59;;;;;;;1.70;1.00;;;18.60;99.90;;;;;;4769545;29;20121;-92
2022/09/09 04:16:28;;;;;;;2.17;1.23;;;18.60;99.90;;;;;;4767566;30;20842;-95
2022/09/09 04:18:55;;;;;;;2.80;1.17;;;18.60;99.90;;;;;;4770971;29;20748;-91
2022/09/09 04:21:23;;;;;;;2.38;1.45;;;18.60;99.90;;;;;;4769387;29;20054;-93
2022/09/09 04:23:51;;;;;;;1.83;1.10;;;18.60;99.90;;;;;;4769512;29;20077;-90
2022/09/09 04:26:19;;;;;;;2.08;1.30;;;18.60;99.90;;;;;;4770497;29;20138;-91
2022/09/09 04:28:47;;;;;;;3.08;1.75;;;18.60;99.90;;;;;;4772152;29;20047;-90
2022/09/09 04:31:23;;;;;;;2.95;1.17;;;18.50;99.90;;;;;;4767059;30;20047;-91
2022/09/09 04:33:53;;;;;;;3.00;1.63;;;18.50;99.90;;;;;;4764034;29;20402;-91
2022/09/09 04:36:21;;;;;;;2.38;1.33;;;18.50;99.90;;;;;;4783977;29;20141;-91
2022/09/09 04:38:52;;;;;;;5.20;2.28;;;18.50;99.90;;;;;;4769733;29;20058;-92
2022/09/09 04:41:20;;;;;;;3.00;1.95;;;18.50;99.90;;;;;;4762789;29;20247;-92
2022/09/09 04:43:53;;;;;;;2.33;1.48;;;18.50;99.90;;;;;;4769079;29;20047;-91
2022/09/09 04:46:25;;;;;;;3.33;1.80;;;18.50;99.90;;;;;;4780560;29;20051;-91
2022/09/09 04:48:53;;;;;;;3.22;1.75;;;18.40;99.90;;;;;;4767151;29;20059;-91
2022/09/09 04:51:24;;;;;;;2.42;1.63;;;18.60;99.90;;;;;;4777071;29;20531;-90
2022/09/09 04:53:53;;;;;;;2.88;1.90;;;18.60;99.90;;;;;;4762650;29;20058;-90
2022/09/09 04:56:21;;;;;;;3.40;1.85;;;18.50;99.90;;;;;;4767273;29;20067;-90
2022/09/09 04:58:52;;;;;;;5.07;2.33;;;18.50;99.90;;;;;;4765509;29;20633;-90
2022/09/09 05:01:24;;;;;;;5.75;2.65;;;18.60;99.90;;;;;;4768789;29;20058;-93
2022/09/09 05:03:53;;;;;;;3.17;2.20;;;18.50;99.90;;;;;;4766890;29;20055;-90
2022/09/09 05:06:22;;;;;;;3.25;1.90;;;18.60;99.90;;;;;;4770714;29;20896;-92
2022/09/09 05:08:54;;;;;;;2.05;1.23;;;18.60;99.90;;;;;;4771421;29;20125;-92
2022/09/09 05:11:28;;;;;;;3.67;1.60;;;18.60;99.90;;;;;;4767881;29;20042;-92
2022/09/09 05:14:01;;;;;;;4.60;2.05;;;18.60;99.90;;;;;;4797290;29;20142;-92
2022/09/09 05:16:30;;;;;;;4.95;2.40;;;18.60;99.90;;;;;;4773417;29;20503;-91
2022/09/09 05:18:58;;;;;;;3.92;1.90;;;18.60;99.90;;;;;;4785326;29;20062;-90
2022/09/09 05:21:34;;;;;;;2.72;1.92;;;18.60;99.90;;;;;;4774356;29;20079;-90
2022/09/09 05:24:02;;;;;;;3.55;2.30;;;18.60;99.90;;;;;;4771851;29;20047;-91
2022/09/09 05:26:31;;;;;;;3.47;2.28;;;18.70;99.90;;;;;;4769578;29;20055;-91
2022/09/09 05:29:00;;;;;;;4.68;2.63;;;18.70;99.90;;;;;;4776037;29;20047;-91
2022/09/09 05:31:30;;;;;;;7.57;2.38;;;18.70;99.90;;;;;;4768030;30;20047;-91
2022/09/09 05:34:01;;;;;;;4.97;2.30;;;18.80;99.90;;;;;;4773046;29;20100;-91
2022/09/09 05:36:28;;;;;;;4.88;2.20;;;18.80;99.90;;;;;;4772233;29;20057;-92
2022/09/09 05:38:56;;;;;;;4.88;2.67;;;18.80;99.90;;;;;;4778630;29;20057;-91
2022/09/09 05:41:26;;;;;;;3.72;2.50;;;18.90;99.90;;;;;;4783645;29;20051;-91
2022/09/09 05:43:55;;;;;;;4.57;2.20;;;19.00;99.90;;;;;;4770321;29;20043;-91
2022/09/09 05:46:25;;;;;;;2.85;2.40;;;19.00;99.90;;;;;;4777927;29;20046;-91
2022/09/09 05:48:54;;;;;;;5.00;2.60;;;19.00;99.90;;;;;;4775355;29;20054;-92
2022/09/09 05:51:29;;;;;;;3.83;2.70;;;19.00;99.90;;;;;;4776021;29;20051;-91
2022/09/09 05:54:00;;;;;;;4.18;2.28;;;19.10;99.90;;;;;;4773714;29;20450;-91
2022/09/09 05:56:32;;;;;;;2.70;1.85;;;19.10;99.90;;;;;;4771526;29;20050;-91
2022/09/09 05:59:00;;;;;;;3.90;2.22;;;19.10;99.90;;;;;;4785482;29;20038;-92
2022/09/09 06:01:31;;;;;;;4.93;2.38;;;19.20;99.90;;;;;;4771718;29;20130;-93
2022/09/09 06:04:00;;;;;;;2.83;1.70;;;19.30;99.90;;;;;;4787037;29;20051;-94
2022/09/09 06:06:36;;;;;;;5.07;1.85;;;19.50;99.90;;;;;;4783283;29;20054;-95
2022/09/09 06:09:10;;;;;;;2.55;2.08;;;19.40;99.90;;;;;;4786961;29;20070;-96
2022/09/09 06:11:41;;;;;;;4.00;1.92;;;19.60;99.90;;;;;;4778975;29;20072;-96
2022/09/09 06:14:09;;;;;;;3.33;1.55;;;19.60;99.90;;;;;;4788315;29;20045;-96
2022/09/09 06:16:39;;;;;;;5.43;2.00;;;19.80;99.90;;;;;;4780752;30;20055;-96
2022/09/09 06:19:17;;;;;;;3.22;1.52;;;19.80;99.90;;;;;;4741941;30;20056;-96
2022/09/09 06:21:45;;;;;;;3.17;1.42;;;19.90;99.90;;;;;;4723473;30;20053;-96
2022/09/09 06:24:17;;;;;;;3.20;1.40;;;19.80;99.90;;;;;;4718068;30;20056;-96
2022/09/09 06:27:13;;;;;;;2.75;1.08;;;19.70;99.90;;;;;;4674849;30;20033;-95
2022/09/09 06:29:41;;;;;;;3.08;1.00;;;19.70;99.90;;;;;;4662333;30;20104;-96
2022/09/09 06:32:36;;;;;;;1.30;1.00;;;19.60;99.90;;;;;;4684207;30;20147;-96
2022/09/09 06:35:04;;;;;;;4.13;1.40;;;19.70;99.90;;;;;;4638752;30;20068;-96
2022/09/09 06:37:33;;;;;;;3.70;1.70;;;19.70;99.90;;;;;;4638753;30;20067;-96
2022/09/09 06:40:01;;;;;;;4.78;1.85;;;19.70;99.90;;;;;;4603672;31;20051;-96
2022/09/09 06:42:31;;;;;;;3.80;1.90;;;19.70;99.90;;;;;;4627362;30;20044;-96
2022/09/09 07:15:28;;;;;;;5.43;2.40;;;20.60;99.90;;;;;;5448460;24;20050;-96
2022/09/09 07:18:01;;;;;;;2.85;1.65;;;20.70;99.90;;;;;;4807058;29;20027;-97
2022/09/09 07:20:57;;;;;;;5.45;1.25;;;20.80;99.90;;;;;;4793462;29;20072;-96
2022/09/09 07:23:27;;;;;;;1.42;0.80;;;20.80;99.90;;;;;;4763356;30;20051;-96
2022/09/09 07:25:54;;;;;;;1.80;1.00;;;20.50;99.90;;;;;;4745035;30;20044;-96
2022/09/09 07:28:22;;;;;;;2.20;1.05;;;20.40;99.90;;;;;;4746373;30;20051;-96
2022/09/09 07:30:54;;;;;;;5.63;1.23;;;20.30;99.90;;;;;;4735686;30;20063;-96
2022/09/09 07:33:23;;;;;;;1.10;0.45;;;20.50;99.90;;;;;;4741650;30;20051;-96
2022/09/09 07:35:52;;;;;;;0.60;0.35;;;20.70;99.90;;;;;;4758793;30;20052;-96
2022/09/09 07:38:22;;;;;;;3.05;0.57;;;21.00;99.90;;;;;;4746919;30;20219;-96
2022/09/09 07:40:50;;;;;;;2.33;0.40;;;21.10;99.90;;;;;;4742012;29;20055;-96
2022/09/09 07:43:18;;;;;;;2.70;0.60;;;21.20;99.90;;;;;;4756459;29;20086;-96
2022/09/09 07:45:46;;;;;;;2.25;0.68;;;21.30;99.90;;;;;;4744748;30;20051;-96
2022/09/09 07:48:14;;;;;;;0.85;0.63;;;21.40;99.90;;;;;;4762269;30;20078;-96
2022/09/09 07:50:41;;;;;;;1.00;0.60;;;21.50;99.90;;;;;;4746675;30;20537;-96
2022/09/09 07:53:09;;;;;;;1.83;1.00;;;21.60;99.90;;;;;;4775693;29;20815;-96
2022/09/09 07:55:36;;;;;;;3.60;0.50;;;21.60;99.70;;;;;;4780250;29;20478;-95
2022/09/09 07:58:04;;;;;;;1.30;0.40;;;21.40;97.20;;;;;;4764317;29;20051;-96
2022/09/09 08:00:33;;;;;;;1.83;1.00;;;21.60;97.50;;;;;;4767095;29;20043;-95
2022/09/09 08:03:01;;;;;;;1.13;0.45;;;21.60;97.80;;;;;;4793773;29;20450;-95
2022/09/09 08:05:29;;;;;;;1.20;0.70;;;21.70;97.20;;;;;;4768684;29;20712;-96
2022/09/09 08:07:57;;;;;;;1.92;0.73;;;21.70;96.90;;;;;;4756592;29;20068;-94
2022/09/09 08:10:24;;;;;;;1.60;0.80;;;21.80;96.70;;;;;;4765943;29;20074;-95
2022/09/09 08:12:55;;;;;;;1.88;0.88;;;21.80;96.10;;;;;;4767756;29;20050;-95
2022/09/09 08:15:43;;;;;;;2.35;1.00;;;21.90;96.60;;;;;;4772927;29;20397;-94
2022/09/09 08:18:10;;;;;;;1.58;0.63;;;22.00;96.80;;;;;;4782289;29;20051;-95
2022/09/09 08:20:38;;;;;;;3.65;0.73;;;22.00;96.30;;;;;;4781565;29;20058;-93
2022/09/09 08:23:06;;;;;;;2.53;0.80;;;22.00;95.10;;;;;;4771868;30;20074;-94
2022/09/09 08:25:34;;;;;;;1.60;0.70;;;22.00;94.30;;;;;;4770811;29;20051;-96
2022/09/09 08:28:03;;;;;;;1.77;0.68;;;22.10;95.00;;;;;;4771576;29;20181;-93
2022/09/09 08:30:31;;;;;;;1.50;0.63;;;22.10;95.60;;;;;;4784210;29;20438;-94
2022/09/09 08:32:59;;;;;;;1.35;0.52;;;22.20;94.90;;;;;;4790285;29;20051;-96
2022/09/09 08:35:32;;;;;;;1.60;0.73;;;22.10;93.50;;;;;;4785473;29;20055;-95
2022/09/09 08:38:02;;;;;;;1.42;0.70;;;22.20;95.40;;;;;;4788319;29;20107;-94
2022/09/09 08:40:41;;;;;;;2.70;0.60;;;22.20;96.00;;;;;;4769326;30;20476;-93
2022/09/09 08:43:08;;;;;;;1.15;0.70;;;22.30;96.20;;;;;;4779649;29;20051;-93
2022/09/09 08:46:25;;;;;;;1.17;0.30;;;22.30;94.70;;;;;;4768635;29;20446;-96
2022/09/09 08:49:13;;;;;;;1.75;0.65;;;22.30;93.10;;;;;;4766276;29;20086;-96
2022/09/09 08:51:41;;;;;;;0.70;0.40;;;22.30;91.70;;;;;;4788954;29;20062;-94
2022/09/09 08:54:09;;;;;;;2.38;0.50;;;22.30;91.40;;;;;;4771079;29;20041;-95
2022/09/09 08:56:37;;;;;;;1.42;0.90;;;22.40;94.00;;;;;;4784466;29;20085;-93
2022/09/09 08:59:05;;;;;;;2.63;0.55;;;22.40;92.90;;;;;;4783040;29;20047;-95
2022/09/09 09:02:02;;;;;;;2.45;0.50;;;22.40;94.60;;;;;;4782001;29;20069;-92
2022/09/09 09:05:09;;;;;;;1.70;0.45;;;22.50;92.10;;;;;;4783858;29;20453;-93
2022/09/09 09:08:15;;;;;;;2.92;0.63;;;22.50;90.70;;;;;;4772849;29;20055;-94
2022/09/09 09:10:51;;;;;;;1.45;0.80;;;22.50;90.40;;;;;;4766153;29;20102;-93
2022/09/09 09:13:48;;;;;;;5.10;0.70;;;22.70;92.20;;;;;;4785169;29;20047;-93
2022/09/09 09:16:22;;;;;;;1.67;0.50;;;22.60;90.00;;;;;;4783352;29;20413;-93
2022/09/09 09:18:52;;;;;;;2.80;0.70;;;22.70;90.20;;;;;;4778137;29;20085;-95
2022/09/09 09:21:32;;;;;;;0.68;0.30;;;22.70;88.50;;;;;;4783294;29;20046;-92
2022/09/09 09:24:01;;;;;;;0.80;0.40;;;22.80;86.60;;;;;;4787624;29;20441;-92
2022/09/09 09:26:35;;;;;;;1.33;0.40;;;22.80;89.50;;;;;;4771117;29;20335;-92
2022/09/09 09:29:14;;;;;;;2.15;0.52;;;22.80;88.40;;;;;;4777006;29;20050;-91
2022/09/09 09:31:54;;;;;;;0.85;0.40;;;22.70;86.70;;;;;;4762607;29;20078;-90
2022/09/09 09:34:24;;;;;;;0.32;0.15;;;22.80;89.30;;;;;;4763152;29;20067;-88
2022/09/09 09:36:56;;;;;;;0.73;0.30;;;22.80;86.00;;;;;;4778730;29;20050;-94
2022/09/09 09:39:29;;;;;;;0.60;0.20;;;22.90;87.60;;;;;;4776774;29;20047;-92
2022/09/09 09:42:17;;;;;;;1.58;0.20;;;22.90;84.70;;;;;;4775978;29;20049;-91
2022/09/09 09:44:51;;;;;;;0.30;0.10;;;23.10;82.90;;;;;;4778712;29;20058;-90
2022/09/09 09:47:23;;;;;;;0.60;0.10;;;23.00;77.80;;;;;;4770224;29;20047;-93
2022/09/09 09:50:01;;;;;;;0.38;0.20;;;23.20;74.20;;;;;;4790116;29;20155;-92
2022/09/09 09:52:36;;;;;;;2.10;0.10;;;23.20;74.00;;;;;;4784761;29;20078;-90
2022/09/09 09:55:14;;;;;;;0.85;0.20;;;23.20;75.20;;;;;;4775658;29;20054;-92
2022/09/09 09:57:44;;;;;;;0.47;0.10;;;23.20;74.60;;;;;;4788596;29;20505;-92
2022/09/09 10:00:17;;;;;;;0.30;0.20;;;23.10;73.50;;;;;;4773959;29;20078;-90
2022/09/09 10:02:54;;;;;;;0.40;0.20;;;23.10;77.00;;;;;;4790019;29;20077;-93
2022/09/09 10:05:27;;;;;;;0.17;0.10;;;23.20;73.50;;;;;;4792132;29;20565;-88
2022/09/09 10:08:11;;;;;;;0.73;0.10;;;23.20;71.50;;;;;;4789615;29;20068;-93
2022/09/09 10:11:02;;;;;;;0.55;0.20;;;23.40;70.10;;;;;;4781857;29;20046;-89
2022/09/09 10:14:14;;;;;;;0.55;0.20;;;23.40;71.30;;;;;;4774897;30;20047;-91
2022/09/09 10:16:54;;;;;;;0.25;0.20;;;23.40;71.50;;;;;;4789533;29;20071;-95
2022/09/09 10:19:32;;;;;;;1.02;0.20;;;23.50;69.10;;;;;;4787581;29;20043;-92
2022/09/09 10:22:28;;;;;;;0.88;0.20;;;23.40;70.30;;;;;;4786892;29;20048;-91
2022/09/09 10:25:10;;;;;;;0.30;0.20;;;23.40;70.00;;;;;;4790189;29;20055;-89
2022/09/09 10:28:00;;;;;;;0.40;0.10;;;23.40;73.70;;;;;;4783761;29;20587;-90
2022/09/09 10:31:05;;;;;;;1.00;0.20;;;23.40;70.30;;;;;;4788481;29;20051;-90
2022/09/09 10:33:52;;;;;;;0.63;0.20;;;23.40;71.90;;;;;;4797322;29;20153;-91
2022/09/09 10:36:25;;;;;;;0.40;0.20;;;23.50;72.50;;;;;;4802043;29;20047;-89
2022/09/09 10:39:13;;;;;;;1.85;0.20;;;23.40;70.80;;;;;;4784585;29;20048;-91
2022/09/09 10:41:43;;;;;;;1.35;0.13;;;23.40;71.30;;;;;;4798859;29;20094;-89
2022/09/09 10:44:44;;;;;;;1.95;0.10;;;23.50;68.70;;;;;;4786612;29;22694;-90
2022/09/09 10:47:32;;;;;;;1.20;0.22;;;23.60;69.10;;;;;;4788011;29;20054;-88
2022/09/09 10:50:47;;;;;;;3.10;0.20;;;23.60;69.70;;;;;;4780393;29;20134;-91
2022/09/09 10:53:40;;;;;;;0.40;0.20;;;23.70;69.20;;;;;;4761161;29;20065;-89
2022/09/09 10:56:12;;;;;;;0.38;0.20;;;23.60;69.30;;;;;;4769409;29;20050;-89
2022/09/09 10:58:56;;;;;;;1.00;0.20;;;23.70;68.90;;;;;;4781628;29;20050;-90
2022/09/09 11:01:40;;;;;;;4.32;0.20;;;23.80;68.40;;;;;;4781545;29;20047;-90
2022/09/09 11:04:19;;;;;;;1.65;0.20;;;23.80;67.40;;;;;;4769965;29;21029;-95
2022/09/09 11:06:52;;;;;;;1.70;0.10;;;24.00;65.70;;;;;;4766542;29;20050;-92
2022/09/09 11:09:24;;;;;;;0.30;0.10;;;24.00;66.50;;;;;;4785405;29;20054;-88
2022/09/09 11:11:54;;;;;;;0.40;0.20;;;24.00;67.00;;;;;;4782482;29;20516;-90
2022/09/09 11:14:25;;;;;;;0.55;0.20;;;24.20;65.90;;;;;;4785248;29;20039;-89
2022/09/09 11:16:58;;;;;;;3.55;0.30;;;24.10;67.80;;;;;;4782005;29;20517;-88
2022/09/09 11:19:55;;;;;;;1.25;0.20;;;24.20;67.50;;;;;;4782857;29;20501;-89
2022/09/09 11:22:40;;;;;;;0.43;0.20;;;24.10;67.20;;;;;;4764663;29;20051;-87
2022/09/09 11:25:17;;;;;;;0.93;0.10;;;24.10;66.40;;;;;;4772458;29;20055;-86
2022/09/09 11:27:57;;;;;;;1.30;0.20;;;24.10;67.00;;;;;;4769694;29;20074;-89
2022/09/09 11:30:41;;;;;;;0.70;0.20;;;24.10;70.60;;;;;;4804275;29;20584;-90
2022/09/09 11:33:41;;;;;;;0.35;0.20;;;24.10;72.20;;;;;;4785749;29;20074;-87
2022/09/09 11:36:39;;;;;;;0.80;0.10;;;24.20;67.30;;;;;;4766227;29;20290;-89
2022/09/09 11:39:44;;;;;;;2.13;0.30;;;24.20;65.90;;;;;;4769070;29;20057;-89
2022/09/09 11:42:12;;;;;;;1.25;0.28;;;24.40;65.30;;;;;;4767433;29;20054;-89
2022/09/09 11:44:41;;;;;;;0.57;0.20;;;24.40;66.40;;;;;;4785435;29;20051;-90
2022/09/09 11:47:29;;;;;;;0.60;0.20;;;24.30;67.30;;;;;;4768235;29;20043;-89
2022/09/09 11:50:15;;;;;;;0.57;0.20;;;24.10;65.50;;;;;;4771161;29;20049;-88
2022/09/09 11:52:46;;;;;;;1.15;0.22;;;24.10;64.20;;;;;;4764637;29;20047;-92
2022/09/09 11:55:33;;;;;;;0.57;0.20;;;24.00;70.10;;;;;;4767547;29;20046;-90
2022/09/09 11:58:06;;;;;;;1.67;0.38;;;24.00;70.70;;;;;;4771125;29;20467;-92
2022/09/09 12:00:49;;;;;;;1.40;0.25;;;24.00;71.20;;;;;;4767107;29;20104;-92
2022/09/09 12:03:44;;;;;;;1.15;0.20;;;24.10;72.40;;;;;;4781745;29;20500;-92
2022/09/09 12:06:33;;;;;;;0.73;0.20;;;24.10;70.60;;;;;;4788222;29;20051;-90
2022/09/09 12:09:29;;;;;;;2.50;0.32;;;24.30;64.30;;;;;;4769739;29;20107;-90
2022/09/09 12:12:26;;;;;;;1.50;0.10;;;24.30;67.00;;;;;;4779487;29;20055;-93
2022/09/09 12:15:17;;;;;;;0.80;0.22;;;24.60;64.70;;;;;;4775133;29;20066;-93
2022/09/09 12:17:53;;;;;;;0.40;0.10;;;24.50;68.30;;;;;;4785223;29;20061;-92
2022/09/09 12:20:30;;;;;;;1.10;0.10;;;24.50;63.80;;;;;;4770200;29;20047;-94
2022/09/09 12:23:01;;;;;;;0.47;0.10;;;24.60;66.40;;;;;;4795103;29;20055;-92
2022/09/09 12:25:35;;;;;;;0.65;0.10;;;24.80;63.20;;;;;;4768329;29;20043;-91
2022/09/09 12:28:11;;;;;;;1.08;0.38;;;24.80;63.50;;;;;;4772599;29;20092;-91
2022/09/09 12:31:20;;;;;;;2.50;0.20;;;24.90;64.10;;;;;;4785787;29;20055;-91
2022/09/09 12:33:47;;;;;;;0.17;0.10;;;24.70;60.10;;;;;;4769237;29;20386;-90
2022/09/09 12:36:29;;;;;;;0.98;0.10;;;24.70;60.20;;;;;;4789315;29;20464;-93
2022/09/09 12:39:10;;;;;;;0.80;0.13;;;24.70;62.00;;;;;;4802882;29;20104;-92
2022/09/09 12:41:37;;;;;;;0.20;0.10;;;24.70;58.50;;;;;;4782474;29;20509;-93
2022/09/09 12:44:10;;;;;;;3.03;0.15;;;24.70;62.80;;;;;;4782574;29;20149;-92
2022/09/09 12:46:43;;;;;;;0.40;0.10;;;24.80;60.40;;;;;;4777953;29;20043;-91
2022/09/09 12:49:22;;;;;;;1.42;0.10;;;24.70;61.10;;;;;;4777167;29;20146;-92
2022/09/09 12:51:50;;;;;;;0.55;0.10;;;24.80;61.40;;;;;;4783144;29;20066;-92
2022/09/09 12:54:19;;;;;;;0.47;0.10;;;24.90;59.50;;;;;;4759077;29;20062;-92
2022/09/09 12:56:48;;;;;;;0.95;0.20;;;25.00;59.30;;;;;;4762560;30;20079;-91
2022/09/09 12:59:41;;;;;;;0.77;0.40;;;24.90;60.80;;;;;;4781352;29;20134;-91
2022/09/09 13:02:19;;;;;;;1.17;0.20;;;24.90;61.00;;;;;;4765206;29;20133;-91
2022/09/09 13:04:47;;;;;;;0.90;0.30;;;24.60;60.90;;;;;;4770197;29;20082;-92
2022/09/09 13:07:16;;;;;;;0.52;0.15;;;24.50;60.00;;;;;;4785936;29;20054;-92
2022/09/09 13:09:45;;;;;;;1.85;0.20;;;24.50;60.40;;;;;;4785551;29;20297;-92
2022/09/09 13:12:22;;;;;;;0.93;0.30;;;24.50;62.40;;;;;;4766795;29;20046;-91
2022/09/09 13:14:56;;;;;;;0.38;0.10;;;24.40;60.50;;;;;;4793018;29;20054;-92
2022/09/09 13:17:27;;;;;;;0.68;0.30;;;24.30;60.00;;;;;;4791591;29;20070;-91
2022/09/09 13:19:56;;;;;;;1.17;0.40;;;24.30;59.50;;;;;;4795022;29;20107;-90
2022/09/09 13:22:34;;;;;;;2.35;0.50;;;24.30;61.80;;;;;;4774438;29;20054;-91
2022/09/09 13:25:11;;;;;;;0.57;0.20;;;24.50;63.50;;;;;;4779720;29;20059;-91
2022/09/09 13:27:42;;;;;;;0.38;0.13;;;24.60;62.40;;;;;;4789943;29;20054;-88
2022/09/09 13:30:23;;;;;;;0.40;0.20;;;24.60;62.50;;;;;;4787697;29;20054;-90
2022/09/09 13:33:09;;;;;;;2.75;0.40;;;24.60;61.10;;;;;;4781650;29;20051;-90
2022/09/09 13:35:58;;;;;;;1.70;0.40;;;24.70;61.40;;;;;;4771138;29;20051;-90
2022/09/09 13:38:29;;;;;;;0.68;0.30;;;24.80;61.80;;;;;;4766254;30;20087;-90
2022/09/09 13:41:04;;;;;;;0.88;0.40;;;24.80;61.60;;;;;;4787004;29;20067;-90
2022/09/09 13:43:36;;;;;;;0.40;0.20;;;24.70;62.30;;;;;;4788128;29;20054;-92
2022/09/09 13:46:24;;;;;;;1.38;0.20;;;24.70;62.40;;;;;;4783056;29;20043;-93
2022/09/09 13:48:56;;;;;;;0.50;0.20;;;24.60;61.10;;;;;;4785143;29;20127;-94
2022/09/09 13:51:33;;;;;;;;;;;24.60;61.90;;;;;;4786232;29;20062;-93
2022/09/09 13:54:01;;;;;;;0.75;0.25;;;24.70;62.30;;;;;;4770672;29;20731;-92
2022/09/09 13:56:28;;;;;;;3.00;0.20;;;24.80;64.80;;;;;;4784769;29;20105;-90
2022/09/09 13:58:57;;;;;;;0.65;0.30;;;24.80;62.20;;;;;;4798984;29;20066;-90
2022/09/09 14:01:24;;;;;;;1.30;0.30;;;24.80;61.80;;;;;;4786059;29;20066;-90
2022/09/09 14:03:56;;;;;;;0.55;0.30;;;24.80;63.20;;;;;;4796870;29;20053;-91